Accueil
METAR-TAF:

METAR-TAF

Aéroports :

Aéroport de Casablanca-Anfa

Casablanca, Maroc

latitude: 33-34N, longitude: 007-40W, altitude: 62 m

Observation

Le bulletin a été fait il y a 45 minutes, à 13:00 UTC
Vent 14 kt de nord/nord-ouest
Température 25°C
Humidité 69%
Pression 1014 hPa
Visibilité 10 km ou plus
Nuages épars à une hauteur de 1600 ft

METAR: GMMC 171300Z 34014KT 9999 SCT016 25/19 Q1014 NOSIG

Heure: 14:45 (13:45 UTC)


TAF: absent

Observations et prévisions météorologiques de plus de 4000 aéroports (messages METAR et TAF).

Les stations disponibles sont représentées par des disques jaunes et rouges sur la carte.

Passer la souris dessus pour voir le nom de la station.

Cliquer dessus pour voir les observations et prévisions météorologiques.

Pour changer de carte: cliquez sur les boutons verts avec une croix noire pour zoomer, sur le bouton vert avec un tiret pour effectuer un zoom arrière, ou sur les flèches vertes pour les cartes adjacentes.


METAR-TAF: